sensor_id;sensor_type;location;lat;lon;timestamp;temperature;humidity
57026;DHT22;43961;52.940;6.834;2023-06-19T00:01:47;21.10;99.90
57026;DHT22;43961;52.940;6.834;2023-06-19T00:04:13;21.10;99.90
57026;DHT22;43961;52.940;6.834;2023-06-19T00:06:38;21.00;99.90
57026;DHT22;43961;52.940;6.834;2023-06-19T00:09:04;21.00;99.90
57026;DHT22;43961;52.940;6.834;2023-06-19T00:11:30;20.90;99.90
57026;DHT22;43961;52.940;6.834;2023-06-19T00:13:56;21.00;99.90
57026;DHT22;43961;52.940;6.834;2023-06-19T00:16:22;21.00;99.90
57026;DHT22;43961;52.940;6.834;2023-06-19T00:18:50;21.00;99.90
57026;DHT22;43961;52.940;6.834;2023-06-19T00:21:17;21.00;99.90
57026;DHT22;43961;52.940;6.834;2023-06-19T00:23:43;21.00;99.90
57026;DHT22;43961;52.940;6.834;2023-06-19T00:26:08;21.00;99.90
57026;DHT22;43961;52.940;6.834;2023-06-19T00:28:34;21.10;99.90
57026;DHT22;43961;52.940;6.834;2023-06-19T00:31:00;21.10;99.90
57026;DHT22;43961;52.940;6.834;2023-06-19T00:33:25;21.20;99.90
57026;DHT22;43961;52.940;6.834;2023-06-19T00:35:51;21.10;99.90
57026;DHT22;43961;52.940;6.834;2023-06-19T00:38:17;21.20;99.90
57026;DHT22;43961;52.940;6.834;2023-06-19T00:40:43;21.20;99.90
57026;DHT22;43961;52.940;6.834;2023-06-19T00:43:08;21.20;99.90
57026;DHT22;43961;52.940;6.834;2023-06-19T00:45:36;21.30;99.90
57026;DHT22;43961;52.940;6.834;2023-06-19T00:48:01;21.20;99.90
57026;DHT22;43961;52.940;6.834;2023-06-19T00:50:29;21.20;99.90
57026;DHT22;43961;52.940;6.834;2023-06-19T00:52:55;21.20;99.90
57026;DHT22;43961;52.940;6.834;2023-06-19T00:55:21;21.20;99.90
57026;DHT22;43961;52.940;6.834;2023-06-19T00:57:48;21.20;99.90
57026;DHT22;43961;52.940;6.834;2023-06-19T01:00:14;21.20;99.90
57026;DHT22;43961;52.940;6.834;2023-06-19T01:02:40;21.20;99.90
57026;DHT22;43961;52.940;6.834;2023-06-19T01:05:06;21.30;99.90
57026;DHT22;43961;52.940;6.834;2023-06-19T01:10:36;21.30;99.90
57026;DHT22;43961;52.940;6.834;2023-06-19T01:13:13;21.20;99.90
57026;DHT22;43961;52.940;6.834;2023-06-19T01:15:42;21.20;99.90
57026;DHT22;43961;52.940;6.834;2023-06-19T01:18:08;21.20;99.90
57026;DHT22;43961;52.940;6.834;2023-06-19T01:20:37;21.20;99.90
57026;DHT22;43961;52.940;6.834;2023-06-19T01:23:10;21.20;99.90
57026;DHT22;43961;52.940;6.834;2023-06-19T01:25:36;21.20;99.90
57026;DHT22;43961;52.940;6.834;2023-06-19T01:28:04;21.20;99.90
57026;DHT22;43961;52.940;6.834;2023-06-19T01:30:31;21.20;99.90
57026;DHT22;43961;52.940;6.834;2023-06-19T01:35:37;21.10;99.90
57026;DHT22;43961;52.940;6.834;2023-06-19T01:38:04;21.10;99.90
57026;DHT22;43961;52.940;6.834;2023-06-19T01:40:31;21.10;99.90
57026;DHT22;43961;52.940;6.834;2023-06-19T01:42:59;21.10;99.90
57026;DHT22;43961;52.940;6.834;2023-06-19T01:45:28;21.00;99.90
57026;DHT22;43961;52.940;6.834;2023-06-19T01:47:54;21.10;99.90
57026;DHT22;43961;52.940;6.834;2023-06-19T01:50:21;21.10;99.90
57026;DHT22;43961;52.940;6.834;2023-06-19T01:52:47;21.00;99.90
57026;DHT22;43961;52.940;6.834;2023-06-19T01:55:13;21.00;99.90
57026;DHT22;43961;52.940;6.834;2023-06-19T01:57:39;21.00;99.90
57026;DHT22;43961;52.940;6.834;2023-06-19T02:00:06;21.00;99.90
57026;DHT22;43961;52.940;6.834;2023-06-19T02:02:33;21.00;99.90
57026;DHT22;43961;52.940;6.834;2023-06-19T02:04:59;21.10;99.90
57026;DHT22;43961;52.940;6.834;2023-06-19T02:07:25;21.10;99.90
57026;DHT22;43961;52.940;6.834;2023-06-19T02:09:51;21.20;99.90
57026;DHT22;43961;52.940;6.834;2023-06-19T02:12:16;21.10;99.90
57026;DHT22;43961;52.940;6.834;2023-06-19T02:14:42;21.20;99.90
57026;DHT22;43961;52.940;6.834;2023-06-19T02:17:07;21.20;99.90
57026;DHT22;43961;52.940;6.834;2023-06-19T02:19:33;21.10;99.90
57026;DHT22;43961;52.940;6.834;2023-06-19T02:21:59;21.10;99.90
57026;DHT22;43961;52.940;6.834;2023-06-19T02:24:24;21.10;99.90
57026;DHT22;43961;52.940;6.834;2023-06-19T02:26:50;21.10;99.90
57026;DHT22;43961;52.940;6.834;2023-06-19T02:29:16;21.20;99.90
57026;DHT22;43961;52.940;6.834;2023-06-19T02:31:42;21.10;99.90
57026;DHT22;43961;52.940;6.834;2023-06-19T02:34:09;21.10;99.90
57026;DHT22;43961;52.940;6.834;2023-06-19T02:36:35;21.20;99.90
57026;DHT22;43961;52.940;6.834;2023-06-19T02:39:03;21.20;99.90
57026;DHT22;43961;52.940;6.834;2023-06-19T02:41:30;21.30;99.90
57026;DHT22;43961;52.940;6.834;2023-06-19T02:43:56;21.20;99.90
57026;DHT22;43961;52.940;6.834;2023-06-19T02:46:21;21.30;99.90
57026;DHT22;43961;52.940;6.834;2023-06-19T02:48:47;21.30;99.90
57026;DHT22;43961;52.940;6.834;2023-06-19T02:51:12;21.30;99.90
57026;DHT22;43961;52.940;6.834;2023-06-19T02:53:38;21.30;99.90
57026;DHT22;43961;52.940;6.834;2023-06-19T02:56:04;21.30;99.90
57026;DHT22;43961;52.940;6.834;2023-06-19T02:58:31;21.30;99.90
57026;DHT22;43961;52.940;6.834;2023-06-19T03:00:56;21.30;99.90
57026;DHT22;43961;52.940;6.834;2023-06-19T03:03:22;21.30;99.90
57026;DHT22;43961;52.940;6.834;2023-06-19T03:05:48;21.30;99.90
57026;DHT22;43961;52.940;6.834;2023-06-19T03:08:14;21.30;99.90
57026;DHT22;43961;52.940;6.834;2023-06-19T03:10:39;21.40;99.90
57026;DHT22;43961;52.940;6.834;2023-06-19T03:13:05;21.40;99.90
57026;DHT22;43961;52.940;6.834;2023-06-19T03:15:31;21.40;99.90
57026;DHT22;43961;52.940;6.834;2023-06-19T03:17:56;21.40;99.90
57026;DHT22;43961;52.940;6.834;2023-06-19T03:20:22;21.40;99.90
57026;DHT22;43961;52.940;6.834;2023-06-19T03:22:48;21.40;99.90
57026;DHT22;43961;52.940;6.834;2023-06-19T03:25:13;21.40;99.90
57026;DHT22;43961;52.940;6.834;2023-06-19T03:27:39;21.40;99.90
57026;DHT22;43961;52.940;6.834;2023-06-19T03:30:05;21.40;99.90
57026;DHT22;43961;52.940;6.834;2023-06-19T03:32:39;21.50;99.90
57026;DHT22;43961;52.940;6.834;2023-06-19T03:35:06;21.40;99.90
57026;DHT22;43961;52.940;6.834;2023-06-19T03:37:31;21.40;99.90
57026;DHT22;43961;52.940;6.834;2023-06-19T03:39:58;21.40;99.90
57026;DHT22;43961;52.940;6.834;2023-06-19T03:42:23;21.40;99.90
57026;DHT22;43961;52.940;6.834;2023-06-19T03:44:50;21.40;99.90
57026;DHT22;43961;52.940;6.834;2023-06-19T03:47:16;21.40;99.90
57026;DHT22;43961;52.940;6.834;2023-06-19T03:49:42;21.40;99.90
57026;DHT22;43961;52.940;6.834;2023-06-19T03:52:08;21.40;99.90
57026;DHT22;43961;52.940;6.834;2023-06-19T03:54:34;21.30;99.90
57026;DHT22;43961;52.940;6.834;2023-06-19T03:56:59;21.30;99.90
57026;DHT22;43961;52.940;6.834;2023-06-19T03:59:25;21.30;99.90
57026;DHT22;43961;52.940;6.834;2023-06-19T04:01:51;21.30;99.90
57026;DHT22;43961;52.940;6.834;2023-06-19T04:04:16;21.20;99.90
57026;DHT22;43961;52.940;6.834;2023-06-19T04:06:42;21.30;99.90
57026;DHT22;43961;52.940;6.834;2023-06-19T04:09:08;21.30;99.90
57026;DHT22;43961;52.940;6.834;2023-06-19T04:11:33;21.20;99.90
57026;DHT22;43961;52.940;6.834;2023-06-19T04:13:59;21.20;99.90
57026;DHT22;43961;52.940;6.834;2023-06-19T04:16:25;21.10;99.90
57026;DHT22;43961;52.940;6.834;2023-06-19T04:18:50;21.20;99.90
57026;DHT22;43961;52.940;6.834;2023-06-19T04:21:16;21.10;99.90
57026;DHT22;43961;52.940;6.834;2023-06-19T04:23:42;21.10;99.90
57026;DHT22;43961;52.940;6.834;2023-06-19T04:26:07;21.10;99.90
57026;DHT22;43961;52.940;6.834;2023-06-19T04:28:33;21.00;99.90
57026;DHT22;43961;52.940;6.834;2023-06-19T04:30:59;21.20;99.90
57026;DHT22;43961;52.940;6.834;2023-06-19T04:33:27;21.00;99.90
57026;DHT22;43961;52.940;6.834;2023-06-19T04:35:55;21.10;99.90
57026;DHT22;43961;52.940;6.834;2023-06-19T04:38:21;21.10;99.90
57026;DHT22;43961;52.940;6.834;2023-06-19T04:40:53;21.00;99.90
57026;DHT22;43961;52.940;6.834;2023-06-19T04:43:19;21.10;99.90
57026;DHT22;43961;52.940;6.834;2023-06-19T04:45:45;21.00;99.90
57026;DHT22;43961;52.940;6.834;2023-06-19T04:48:11;21.00;99.90
57026;DHT22;43961;52.940;6.834;2023-06-19T04:50:37;21.10;99.90
57026;DHT22;43961;52.940;6.834;2023-06-19T04:53:02;21.10;99.90
57026;DHT22;43961;52.940;6.834;2023-06-19T04:55:28;21.10;99.90
57026;DHT22;43961;52.940;6.834;2023-06-19T04:57:54;21.10;99.90
57026;DHT22;43961;52.940;6.834;2023-06-19T05:00:20;21.20;99.90
57026;DHT22;43961;52.940;6.834;2023-06-19T05:02:47;21.10;99.90
57026;DHT22;43961;52.940;6.834;2023-06-19T05:05:16;21.00;99.90
57026;DHT22;43961;52.940;6.834;2023-06-19T05:07:42;21.10;99.90
57026;DHT22;43961;52.940;6.834;2023-06-19T05:10:08;21.00;99.90
57026;DHT22;43961;52.940;6.834;2023-06-19T05:12:35;21.10;99.90
57026;DHT22;43961;52.940;6.834;2023-06-19T05:15:01;21.10;99.90
57026;DHT22;43961;52.940;6.834;2023-06-19T05:17:27;21.10;99.90
57026;DHT22;43961;52.940;6.834;2023-06-19T05:19:52;21.00;99.90
57026;DHT22;43961;52.940;6.834;2023-06-19T05:22:18;21.10;99.90
57026;DHT22;43961;52.940;6.834;2023-06-19T05:24:49;21.10;99.90
57026;DHT22;43961;52.940;6.834;2023-06-19T05:27:15;21.40;99.90
57026;DHT22;43961;52.940;6.834;2023-06-19T05:29:41;21.10;99.90
57026;DHT22;43961;52.940;6.834;2023-06-19T05:32:07;21.00;99.90
57026;DHT22;43961;52.940;6.834;2023-06-19T05:34:32;21.10;99.90
57026;DHT22;43961;52.940;6.834;2023-06-19T05:36:58;21.20;99.90
57026;DHT22;43961;52.940;6.834;2023-06-19T05:39:26;21.20;99.90
57026;DHT22;43961;52.940;6.834;2023-06-19T05:41:51;21.20;99.90
57026;DHT22;43961;52.940;6.834;2023-06-19T05:44:17;21.10;99.90
57026;DHT22;43961;52.940;6.834;2023-06-19T05:46:44;21.10;99.90
57026;DHT22;43961;52.940;6.834;2023-06-19T05:49:13;21.10;99.90
57026;DHT22;43961;52.940;6.834;2023-06-19T05:51:39;21.00;99.90
57026;DHT22;43961;52.940;6.834;2023-06-19T05:54:04;21.00;99.90
57026;DHT22;43961;52.940;6.834;2023-06-19T05:56:31;21.00;99.90
57026;DHT22;43961;52.940;6.834;2023-06-19T05:59:00;21.30;99.90
57026;DHT22;43961;52.940;6.834;2023-06-19T06:01:27;21.30;99.90
57026;DHT22;43961;52.940;6.834;2023-06-19T06:03:56;21.40;99.90
57026;DHT22;43961;52.940;6.834;2023-06-19T06:06:25;21.50;99.90
57026;DHT22;43961;52.940;6.834;2023-06-19T06:08:54;21.50;99.90
57026;DHT22;43961;52.940;6.834;2023-06-19T06:11:21;21.60;99.90
57026;DHT22;43961;52.940;6.834;2023-06-19T06:13:46;21.80;99.90
57026;DHT22;43961;52.940;6.834;2023-06-19T06:16:12;21.90;99.90
57026;DHT22;43961;52.940;6.834;2023-06-19T06:18:38;21.90;99.90
57026;DHT22;43961;52.940;6.834;2023-06-19T06:21:03;22.00;99.90
57026;DHT22;43961;52.940;6.834;2023-06-19T06:23:30;22.00;99.90
57026;DHT22;43961;52.940;6.834;2023-06-19T06:25:55;22.20;99.90
57026;DHT22;43961;52.940;6.834;2023-06-19T06:28:26;22.20;99.90
57026;DHT22;43961;52.940;6.834;2023-06-19T06:30:52;22.30;99.90
57026;DHT22;43961;52.940;6.834;2023-06-19T06:33:18;22.50;99.90
57026;DHT22;43961;52.940;6.834;2023-06-19T06:35:43;22.30;99.90
57026;DHT22;43961;52.940;6.834;2023-06-19T06:38:09;22.50;99.90
57026;DHT22;43961;52.940;6.834;2023-06-19T06:40:36;22.40;99.90
57026;DHT22;43961;52.940;6.834;2023-06-19T06:43:02;22.60;99.90
57026;DHT22;43961;52.940;6.834;2023-06-19T06:45:27;22.70;99.90
57026;DHT22;43961;52.940;6.834;2023-06-19T06:47:53;22.60;99.90
57026;DHT22;43961;52.940;6.834;2023-06-19T06:50:18;22.80;99.90
57026;DHT22;43961;52.940;6.834;2023-06-19T06:52:44;22.80;99.90
57026;DHT22;43961;52.940;6.834;2023-06-19T06:55:10;22.80;99.90
57026;DHT22;43961;52.940;6.834;2023-06-19T06:57:35;22.70;99.90
57026;DHT22;43961;52.940;6.834;2023-06-19T07:00:02;22.90;99.90
57026;DHT22;43961;52.940;6.834;2023-06-19T07:02:29;22.70;99.90
57026;DHT22;43961;52.940;6.834;2023-06-19T07:04:55;22.80;99.90
57026;DHT22;43961;52.940;6.834;2023-06-19T07:07:20;22.80;99.90
57026;DHT22;43961;52.940;6.834;2023-06-19T07:09:46;22.60;99.90
57026;DHT22;43961;52.940;6.834;2023-06-19T07:12:12;22.50;99.90
57026;DHT22;43961;52.940;6.834;2023-06-19T07:14:38;22.50;99.90
57026;DHT22;43961;52.940;6.834;2023-06-19T07:17:04;22.60;99.90
57026;DHT22;43961;52.940;6.834;2023-06-19T07:19:32;22.50;99.90
57026;DHT22;43961;52.940;6.834;2023-06-19T07:21:58;22.30;99.90
57026;DHT22;43961;52.940;6.834;2023-06-19T07:24:24;22.30;99.90
57026;DHT22;43961;52.940;6.834;2023-06-19T07:26:50;22.20;99.90
57026;DHT22;43961;52.940;6.834;2023-06-19T07:29:16;22.20;99.90
57026;DHT22;43961;52.940;6.834;2023-06-19T07:31:42;22.10;99.90
57026;DHT22;43961;52.940;6.834;2023-06-19T07:34:10;22.30;99.90
57026;DHT22;43961;52.940;6.834;2023-06-19T07:36:36;22.20;99.90
57026;DHT22;43961;52.940;6.834;2023-06-19T07:39:02;22.20;99.90
57026;DHT22;43961;52.940;6.834;2023-06-19T07:41:28;22.10;99.90
57026;DHT22;43961;52.940;6.834;2023-06-19T07:43:54;22.30;99.90
57026;DHT22;43961;52.940;6.834;2023-06-19T07:46:19;22.10;99.90
57026;DHT22;43961;52.940;6.834;2023-06-19T07:48:45;22.20;99.90
57026;DHT22;43961;52.940;6.834;2023-06-19T07:51:11;22.20;99.90
57026;DHT22;43961;52.940;6.834;2023-06-19T07:53:37;21.90;99.90
57026;DHT22;43961;52.940;6.834;2023-06-19T07:56:02;21.90;99.90
57026;DHT22;43961;52.940;6.834;2023-06-19T07:58:28;21.80;99.90
57026;DHT22;43961;52.940;6.834;2023-06-19T08:00:55;21.90;99.90
57026;DHT22;43961;52.940;6.834;2023-06-19T08:03:21;22.00;99.90
57026;DHT22;43961;52.940;6.834;2023-06-19T08:05:48;21.70;99.90
57026;DHT22;43961;52.940;6.834;2023-06-19T08:08:13;21.70;99.90
57026;DHT22;43961;52.940;6.834;2023-06-19T08:10:39;21.70;99.90
57026;DHT22;43961;52.940;6.834;2023-06-19T08:13:06;21.80;99.90
57026;DHT22;43961;52.940;6.834;2023-06-19T08:17:58;21.70;99.90
57026;DHT22;43961;52.940;6.834;2023-06-19T08:20:23;21.60;99.90
57026;DHT22;43961;52.940;6.834;2023-06-19T08:22:49;21.80;99.90
57026;DHT22;43961;52.940;6.834;2023-06-19T08:25:15;21.60;99.90
57026;DHT22;43961;52.940;6.834;2023-06-19T08:27:40;21.60;99.90
57026;DHT22;43961;52.940;6.834;2023-06-19T08:30:07;21.60;99.90
57026;DHT22;43961;52.940;6.834;2023-06-19T08:32:32;21.50;99.90
57026;DHT22;43961;52.940;6.834;2023-06-19T08:35:00;21.60;99.90
57026;DHT22;43961;52.940;6.834;2023-06-19T08:37:25;21.60;99.90
57026;DHT22;43961;52.940;6.834;2023-06-19T08:39:51;21.70;99.90
57026;DHT22;43961;52.940;6.834;2023-06-19T08:42:16;21.80;99.90
57026;DHT22;43961;52.940;6.834;2023-06-19T08:44:42;22.00;99.90
57026;DHT22;43961;52.940;6.834;2023-06-19T08:47:08;21.90;99.90
57026;DHT22;43961;52.940;6.834;2023-06-19T08:49:36;22.00;99.90
57026;DHT22;43961;52.940;6.834;2023-06-19T08:52:02;22.00;99.90
57026;DHT22;43961;52.940;6.834;2023-06-19T08:54:29;22.00;99.90
57026;DHT22;43961;52.940;6.834;2023-06-19T08:56:55;22.10;99.90
57026;DHT22;43961;52.940;6.834;2023-06-19T08:59:21;22.00;99.90
57026;DHT22;43961;52.940;6.834;2023-06-19T09:01:49;22.10;99.90
57026;DHT22;43961;52.940;6.834;2023-06-19T09:04:25;22.20;99.90
57026;DHT22;43961;52.940;6.834;2023-06-19T09:09:27;22.60;99.90
57026;DHT22;43961;52.940;6.834;2023-06-19T09:11:58;22.50;99.90
57026;DHT22;43961;52.940;6.834;2023-06-19T09:14:37;22.80;99.90
57026;DHT22;43961;52.940;6.834;2023-06-19T09:17:04;22.80;99.90
57026;DHT22;43961;52.940;6.834;2023-06-19T09:19:30;22.90;99.90
57026;DHT22;43961;52.940;6.834;2023-06-19T09:22:01;22.90;99.90
57026;DHT22;43961;52.940;6.834;2023-06-19T09:24:41;23.00;99.90
57026;DHT22;43961;52.940;6.834;2023-06-19T09:29:36;23.20;99.90
57026;DHT22;43961;52.940;6.834;2023-06-19T09:32:14;23.10;99.90
57026;DHT22;43961;52.940;6.834;2023-06-19T09:34:40;23.10;99.90
57026;DHT22;43961;52.940;6.834;2023-06-19T09:37:07;23.20;99.90
57026;DHT22;43961;52.940;6.834;2023-06-19T09:39:34;23.10;99.90
57026;DHT22;43961;52.940;6.834;2023-06-19T09:42:03;23.20;99.90
57026;DHT22;43961;52.940;6.834;2023-06-19T09:44:41;23.10;99.90
57026;DHT22;43961;52.940;6.834;2023-06-19T09:47:15;23.20;99.90
57026;DHT22;43961;52.940;6.834;2023-06-19T09:49:56;23.30;99.90
57026;DHT22;43961;52.940;6.834;2023-06-19T09:52:23;23.20;99.90
57026;DHT22;43961;52.940;6.834;2023-06-19T09:54:50;23.20;99.90
57026;DHT22;43961;52.940;6.834;2023-06-19T09:57:16;23.20;99.90
57026;DHT22;43961;52.940;6.834;2023-06-19T09:59:43;23.20;99.90
57026;DHT22;43961;52.940;6.834;2023-06-19T10:02:11;23.10;99.90
57026;DHT22;43961;52.940;6.834;2023-06-19T10:04:41;23.20;99.90
57026;DHT22;43961;52.940;6.834;2023-06-19T10:07:15;23.30;99.90
57026;DHT22;43961;52.940;6.834;2023-06-19T10:09:42;23.50;99.90
57026;DHT22;43961;52.940;6.834;2023-06-19T10:14:47;24.10;99.90
57026;DHT22;43961;52.940;6.834;2023-06-19T10:17:18;24.30;99.90
57026;DHT22;43961;52.940;6.834;2023-06-19T10:19:50;24.60;99.90
57026;DHT22;43961;52.940;6.834;2023-06-19T10:22:20;24.80;99.90
57026;DHT22;43961;52.940;6.834;2023-06-19T10:27:21;25.20;99.90
57026;DHT22;43961;52.940;6.834;2023-06-19T10:29:52;25.20;99.90
57026;DHT22;43961;52.940;6.834;2023-06-19T10:32:23;25.20;99.90
57026;DHT22;43961;52.940;6.834;2023-06-19T10:37:15;25.40;99.90
57026;DHT22;43961;52.940;6.834;2023-06-19T10:39:42;25.70;99.90
57026;DHT22;43961;52.940;6.834;2023-06-19T10:42:08;25.60;99.90
57026;DHT22;43961;52.940;6.834;2023-06-19T10:44:35;25.60;99.90
57026;DHT22;43961;52.940;6.834;2023-06-19T10:47:02;25.50;99.90
57026;DHT22;43961;52.940;6.834;2023-06-19T10:49:28;25.50;99.90
57026;DHT22;43961;52.940;6.834;2023-06-19T10:51:54;25.40;99.90
57026;DHT22;43961;52.940;6.834;2023-06-19T10:54:25;25.50;99.90
57026;DHT22;43961;52.940;6.834;2023-06-19T10:56:51;25.50;99.90
57026;DHT22;43961;52.940;6.834;2023-06-19T10:59:17;25.70;99.90
57026;DHT22;43961;52.940;6.834;2023-06-19T11:01:48;25.80;99.90
57026;DHT22;43961;52.940;6.834;2023-06-19T11:04:16;25.90;99.90
57026;DHT22;43961;52.940;6.834;2023-06-19T11:06:43;25.80;99.90
57026;DHT22;43961;52.940;6.834;2023-06-19T11:09:11;26.10;99.90
57026;DHT22;43961;52.940;6.834;2023-06-19T11:11:45;26.20;99.90
57026;DHT22;43961;52.940;6.834;2023-06-19T11:14:12;26.10;99.90
57026;DHT22;43961;52.940;6.834;2023-06-19T11:16:44;26.00;99.90
57026;DHT22;43961;52.940;6.834;2023-06-19T11:19:15;25.90;99.90
57026;DHT22;43961;52.940;6.834;2023-06-19T11:21:46;25.70;99.90
57026;DHT22;43961;52.940;6.834;2023-06-19T11:26:43;25.50;99.90
57026;DHT22;43961;52.940;6.834;2023-06-19T11:29:16;25.60;99.90
57026;DHT22;43961;52.940;6.834;2023-06-19T11:34:09;25.80;99.90
57026;DHT22;43961;52.940;6.834;2023-06-19T11:36:37;25.90;99.90
57026;DHT22;43961;52.940;6.834;2023-06-19T11:39:03;26.10;99.90
57026;DHT22;43961;52.940;6.834;2023-06-19T11:41:30;26.20;99.90
57026;DHT22;43961;52.940;6.834;2023-06-19T11:58:54;26.40;99.90
